Terminal Aerodrome Forecast
Issued by NWS Pueblo, CO

Home | Current Version | Previous Version | Text Only | Print | Product List | Glossary On
Versions: 1 2 3 4 5 6 7 8 9 10 11 12 13 14 15 16 17 18 19 20 21 22 23 24 25 26 27 28 29 30 31 32 33 34 35 36 37 38 39
000
FTUS45 KPUB 261725
TAFPUB
TAF
KPUB 261725Z 2618/2718 04008KT P6SM OVC060
      TEMPO 2618/2620 3SM -SN BR BKN015
     FM262000 05014KT 3SM -SN BR OVC015
     FM262200 07010KT 5SM -SHSN OVC012
     FM270200 VRB06KT 6SM BR VCSH BKN030
     FM270700 VRB05KT P6SM SCT030 SCT100=

USA.gov is the U.S. government's official web portal to all federal, state and local government web resources and services.